Time;durP1;ratioP1;P1;durP2;ratioP2;P2;SDS_P1;SDS_P2;PMS_P1;PMS_P2;Temp;Humidity;BMP_temperature;BMP_pressure;BME280_temperature;BME280_humidity;BME280_pressure;Samples;Min_cycle;Max_cycle;Signal;HPM_P1;HPM_P2
2021/10/19 00:01:49;;;;;;;11.65;8.02;;;;;;;17.00;45.06;101652.38;4989616;28;21504;-71
2021/10/19 00:04:16;;;;;;;11.27;7.45;;;;;;;17.01;45.57;101656.88;4992112;28;20642;-71
2021/10/19 00:06:43;;;;;;;11.15;7.25;;;;;;;17.01;45.47;101648.63;4991596;28;20074;-71
2021/10/19 00:09:09;;;;;;;13.05;7.68;;;;;;;17.02;45.73;101635.78;4988330;28;20054;-71
2021/10/19 00:11:36;;;;;;;12.90;8.30;;;;;;;17.03;45.60;101635.66;4983153;28;20050;-71
2021/10/19 00:14:03;;;;;;;11.30;7.88;;;;;;;17.03;45.85;101624.69;4963891;28;20042;-71
2021/10/19 00:16:30;;;;;;;11.38;8.02;;;;;;;17.06;45.62;101626.28;4986793;28;20733;-71
2021/10/19 00:18:57;;;;;;;12.05;7.57;;;;;;;17.06;45.76;101620.81;4991174;28;20052;-71
2021/10/19 00:21:23;;;;;;;12.45;7.85;;;;;;;17.07;45.51;101614.31;4991558;28;20601;-71
2021/10/19 00:23:50;;;;;;;11.02;7.78;;;;;;;17.07;45.33;101615.19;4989591;28;20042;-71
2021/10/19 00:26:17;;;;;;;12.25;7.82;;;;;;;17.09;45.73;101615.94;4983008;28;20180;-71
2021/10/19 00:28:43;;;;;;;10.73;7.15;;;;;;;17.10;45.39;101611.34;4991701;28;20733;-71
2021/10/19 00:31:10;;;;;;;11.18;8.32;;;;;;;17.11;45.62;101618.56;4992357;28;20125;-71
2021/10/19 00:33:36;;;;;;;11.35;7.88;;;;;;;17.11;45.37;101613.97;4991427;28;20129;-71
2021/10/19 00:36:03;;;;;;;10.90;7.40;;;;;;;17.13;45.41;101604.75;4979340;28;20043;-71
2021/10/19 00:38:30;;;;;;;10.63;7.68;;;;;;;17.11;45.73;101605.72;4988887;28;20058;-71
2021/10/19 00:40:56;;;;;;;10.18;7.30;;;;;;;17.14;45.24;101604.59;4991232;28;20096;-71
2021/10/19 00:43:26;;;;;;;11.07;7.85;;;;;;;17.15;45.44;101603.59;4989116;28;20073;-72
2021/10/19 00:45:54;;;;;;;10.80;7.22;;;;;;;17.15;45.60;101613.69;4989100;28;20438;-71
2021/10/19 00:48:24;;;;;;;11.82;7.88;;;;;;;17.13;45.64;101609.19;4989996;28;20182;-72
2021/10/19 00:50:51;;;;;;;10.20;7.10;;;;;;;17.13;45.59;101613.81;4987809;28;20050;-71
2021/10/19 00:53:18;;;;;;;10.43;7.28;;;;;;;17.13;45.51;101609.19;4993498;28;20062;-72
2021/10/19 00:55:46;;;;;;;10.77;7.18;;;;;;;17.15;45.81;101610.94;4989321;28;20046;-72
2021/10/19 00:58:12;;;;;;;10.25;7.13;;;;;;;17.15;45.67;101617.31;4991634;28;20046;-71
2021/10/19 01:00:39;;;;;;;12.52;7.32;;;;;;;17.15;46.06;101611.81;4989929;28;20050;-71
2021/10/19 01:03:06;;;;;;;12.15;8.00;;;;;;;17.17;46.02;101609.84;4985015;28;20209;-71
2021/10/19 01:05:34;;;;;;;9.05;6.90;;;;;;;17.19;45.64;101612.47;4987344;28;20039;-71
2021/10/19 01:08:02;;;;;;;11.43;7.15;;;;;;;17.19;45.70;101613.34;4979976;28;20313;-71
2021/10/19 01:10:29;;;;;;;10.77;7.05;;;;;;;17.21;45.81;101621.44;4989844;28;20050;-71
2021/10/19 01:12:57;;;;;;;9.82;7.07;;;;;;;17.23;45.95;101622.16;4991065;28;20402;-71
2021/10/19 01:15:24;;;;;;;11.13;7.22;;;;;;;17.23;46.26;101619.41;4990172;28;20046;-71
2021/10/19 01:17:51;;;;;;;11.02;7.35;;;;;;;17.25;46.19;101614.69;4985535;28;20417;-71
2021/10/19 01:20:24;;;;;;;11.00;7.60;;;;;;;17.28;46.16;101611.69;4987636;28;20050;-71
2021/10/19 01:22:52;;;;;;;11.43;6.80;;;;;;;17.24;46.28;101608.31;4990051;28;20093;-70
2021/10/19 01:25:21;;;;;;;12.55;8.00;;;;;;;17.27;46.39;101621.81;4988141;28;20489;-70
2021/10/19 01:27:52;;;;;;;10.52;7.00;;;;;;;17.28;46.32;101625.41;4991142;28;20050;-70
2021/10/19 01:30:20;;;;;;;11.13;7.10;;;;;;;17.28;46.23;101620.81;4989734;28;20089;-70
2021/10/19 01:32:47;;;;;;;11.18;7.18;;;;;;;17.29;46.65;101607.97;4990660;28;20054;-70
2021/10/19 01:35:14;;;;;;;11.70;7.55;;;;;;;17.28;46.38;101598.84;4971592;28;20401;-70
2021/10/19 01:37:42;;;;;;;12.43;7.80;;;;;;;17.30;46.73;101605.06;4978838;28;20061;-71
2021/10/19 01:40:12;;;;;;;11.35;7.85;;;;;;;17.31;46.68;101603.19;4988802;28;20054;-71
2021/10/19 01:42:39;;;;;;;11.65;7.55;;;;;;;17.29;46.77;101597.84;4989958;28;20050;-70
2021/10/19 01:45:15;;;;;;;10.10;6.85;;;;;;;17.32;46.75;101596.69;4970971;28;20058;-71
2021/10/19 01:47:42;;;;;;;9.38;6.55;;;;;;;17.28;46.58;101601.59;4989543;28;20050;-71
2021/10/19 01:50:10;;;;;;;11.52;7.22;;;;;;;17.30;46.67;101588.59;4981128;28;20050;-70
2021/10/19 01:52:38;;;;;;;11.13;7.28;;;;;;;17.29;47.05;101592.38;4990150;28;20057;-70
2021/10/19 01:55:05;;;;;;;10.35;7.28;;;;;;;17.30;47.13;101584.97;4987797;28;20042;-70
2021/10/19 01:57:32;;;;;;;11.20;7.60;;;;;;;17.29;46.77;101586.00;4972343;28;20077;-70
2021/10/19 01:59:59;;;;;;;10.93;7.15;;;;;;;17.28;46.94;101587.88;4989331;28;20050;-69
2021/10/19 02:02:26;;;;;;;10.20;7.18;;;;;;;17.28;46.85;101590.63;4987282;28;20741;-69
2021/10/19 02:04:53;;;;;;;11.18;7.28;;;;;;;17.29;47.05;101580.50;4986847;28;20050;-69
2021/10/19 02:07:21;;;;;;;10.57;6.78;;;;;;;17.28;47.26;101581.50;4990060;28;20050;-69
2021/10/19 02:09:47;;;;;;;9.68;6.70;;;;;;;17.29;47.13;101586.00;4988495;28;20105;-69
2021/10/19 02:12:14;;;;;;;9.73;7.47;;;;;;;17.28;47.36;101584.25;4988191;28;20133;-69
2021/10/19 02:14:40;;;;;;;11.10;7.25;;;;;;;17.27;47.37;101591.59;4987633;28;20085;-69
2021/10/19 02:17:07;;;;;;;12.32;7.55;;;;;;;17.28;47.38;101597.97;4986392;28;20508;-68
2021/10/19 02:19:34;;;;;;;12.30;7.65;;;;;;;17.28;47.02;101592.47;4980693;28;20101;-69
2021/10/19 02:22:01;;;;;;;11.77;7.45;;;;;;;17.27;47.46;101588.00;4988155;28;20101;-68
2021/10/19 02:24:28;;;;;;;11.80;6.88;;;;;;;17.28;47.54;101581.50;4985868;28;20421;-68
2021/10/19 02:26:54;;;;;;;13.38;7.57;;;;;;;17.28;47.74;101587.00;4988416;28;20525;-68
2021/10/19 02:29:21;;;;;;;10.70;7.30;;;;;;;17.27;47.59;101579.75;4979619;28;20070;-68
2021/10/19 02:31:47;;;;;;;11.30;7.75;;;;;;;17.27;47.66;101579.75;4987050;28;20121;-68
2021/10/19 02:34:16;;;;;;;10.40;7.03;;;;;;;17.27;47.53;101572.41;4984968;28;20050;-68
2021/10/19 02:36:44;;;;;;;12.07;7.88;;;;;;;17.26;47.32;101567.03;4987949;28;20046;-68
2021/10/19 02:39:10;;;;;;;11.30;7.03;;;;;;;17.25;47.64;101560.66;4988931;28;20085;-68
2021/10/19 02:41:39;;;;;;;10.98;6.65;;;;;;;17.27;47.68;101558.69;4982306;28;20104;-68
2021/10/19 02:44:06;;;;;;;10.02;7.00;;;;;;;17.24;47.37;101547.94;4971065;28;20057;-68
2021/10/19 02:46:34;;;;;;;11.60;7.30;;;;;;;17.24;47.85;101547.06;4968706;28;20042;-68
2021/10/19 02:49:02;;;;;;;10.40;7.05;;;;;;;17.23;47.42;101540.72;4987706;28;20592;-68
2021/10/19 02:51:29;;;;;;;10.73;7.28;;;;;;;17.21;47.67;101540.00;4988228;28;20140;-67
2021/10/19 02:53:56;;;;;;;15.90;7.97;;;;;;;17.20;47.89;101530.00;4987737;28;20062;-68
2021/10/19 02:56:23;;;;;;;10.95;7.50;;;;;;;17.19;47.69;101527.38;4988372;28;20521;-68
2021/10/19 02:58:49;;;;;;;9.48;7.00;;;;;;;17.17;47.63;101523.88;4986808;28;20066;-68
2021/10/19 03:01:16;;;;;;;10.38;7.20;;;;;;;17.15;47.70;101534.13;4982067;28;20102;-67
2021/10/19 03:03:43;;;;;;;11.07;7.18;;;;;;;17.14;47.91;101525.00;4986994;28;20042;-68
2021/10/19 03:06:10;;;;;;;9.10;6.60;;;;;;;17.13;48.01;101525.16;4988353;28;20046;-68
2021/10/19 03:08:36;;;;;;;12.05;7.60;;;;;;;17.10;48.14;101523.53;4986405;28;20179;-67
2021/10/19 03:11:03;;;;;;;10.90;7.35;;;;;;;17.09;48.10;101522.66;4981049;28;20078;-67
2021/10/19 03:13:34;;;;;;;10.63;7.80;;;;;;;17.07;48.05;101521.03;4984317;28;20516;-68
2021/10/19 03:16:14;;;;;;;10.05;6.75;;;;;;;17.05;48.08;101520.28;4986234;28;20069;-68
2021/10/19 03:18:40;;;;;;;9.00;6.43;;;;;;;17.04;48.52;101524.94;4984356;28;20061;-68
2021/10/19 03:21:07;;;;;;;10.77;7.45;;;;;;;17.04;48.31;101515.84;4986309;28;20092;-68
2021/10/19 03:23:34;;;;;;;10.88;7.15;;;;;;;17.04;48.25;101516.69;4965773;28;20101;-68
2021/10/19 03:26:01;;;;;;;10.38;7.20;;;;;;;17.02;48.31;101524.19;4986631;28;20047;-68
2021/10/19 03:28:28;;;;;;;10.45;7.32;;;;;;;17.01;48.59;101524.31;4986781;28;20054;-69
2021/10/19 03:30:54;;;;;;;13.10;7.82;;;;;;;17.01;48.55;101518.81;4989662;28;20054;-69
2021/10/19 03:33:21;;;;;;;11.40;7.85;;;;;;;17.00;48.71;101517.06;4985199;28;20141;-70
2021/10/19 03:35:48;;;;;;;11.05;7.70;;;;;;;17.00;48.76;101514.31;4994889;28;20039;-69
2021/10/19 03:38:27;;;;;;;10.98;7.55;;;;;;;17.01;49.41;101519.69;4987255;28;20088;-69
2021/10/19 03:40:53;;;;;;;10.70;7.47;;;;;;;16.97;48.73;101529.16;4982626;28;20457;-68
2021/10/19 03:43:20;;;;;;;10.88;7.65;;;;;;;16.97;48.74;101520.94;4987028;28;20117;-68
2021/10/19 03:45:48;;;;;;;10.30;7.57;;;;;;;17.00;49.09;101519.81;4975185;28;20121;-68
2021/10/19 03:48:15;;;;;;;12.32;8.38;;;;;;;16.97;49.09;101528.28;4984665;28;20517;-69
2021/10/19 03:50:41;;;;;;;12.50;7.88;;;;;;;16.96;49.14;101524.69;4986348;28;20050;-73
2021/10/19 03:53:10;;;;;;;12.57;8.10;;;;;;;16.97;49.31;101522.78;4983415;28;20561;-71
2021/10/19 03:55:36;;;;;;;12.13;8.18;;;;;;;16.95;49.08;101520.22;4986363;28;20113;-69
2021/10/19 03:58:03;;;;;;;10.30;7.55;;;;;;;16.95;49.23;101516.59;4987990;28;20051;-68
2021/10/19 04:00:30;;;;;;;10.68;7.05;;;;;;;16.94;49.51;101512.97;4986999;28;20474;-67
2021/10/19 04:02:57;;;;;;;12.80;8.30;;;;;;;16.94;49.59;101507.50;4986609;28;20448;-67
2021/10/19 04:05:24;;;;;;;10.82;7.03;;;;;;;16.95;49.70;101505.63;4985880;28;20616;-68
2021/10/19 04:07:50;;;;;;;10.20;7.07;;;;;;;16.94;49.58;101506.63;4986338;28;20133;-71
2021/10/19 04:10:17;;;;;;;11.88;7.40;;;;;;;16.94;49.59;101503.88;4987175;28;20145;-70
2021/10/19 04:12:44;;;;;;;11.77;8.18;;;;;;;16.94;49.97;101506.63;4987995;28;20618;-68
2021/10/19 04:15:11;;;;;;;11.63;7.95;;;;;;;16.93;49.73;101500.25;4986796;28;20592;-67
2021/10/19 04:17:37;;;;;;;11.20;7.50;;;;;;;16.93;49.89;101494.78;4987377;28;20070;-65
2021/10/19 04:20:05;;;;;;;11.95;7.82;;;;;;;16.95;49.96;101497.38;4981347;28;20599;-67
2021/10/19 04:22:32;;;;;;;12.13;8.25;;;;;;;16.93;49.78;101500.25;4984595;28;20467;-68
2021/10/19 04:24:59;;;;;;;13.02;8.27;;;;;;;16.92;49.77;101495.75;4987816;28;20044;-69
2021/10/19 04:27:27;;;;;;;12.20;7.65;;;;;;;16.93;49.99;101492.03;4987851;28;20489;-70
2021/10/19 04:29:54;;;;;;;11.38;7.28;;;;;;;16.92;50.02;101492.16;4986631;28;20042;-70
2021/10/19 04:32:21;;;;;;;11.45;7.63;;;;;;;16.92;50.19;101489.41;4976712;28;20108;-65
2021/10/19 04:34:48;;;;;;;11.70;7.15;;;;;;;16.91;50.34;101482.16;4988430;28;20055;-65
2021/10/19 04:37:14;;;;;;;10.95;7.47;;;;;;;16.91;50.31;101480.31;4987606;28;20050;-65
2021/10/19 04:39:41;;;;;;;11.93;7.57;;;;;;;16.89;50.40;101482.28;4989253;28;20462;-65
2021/10/19 04:42:08;;;;;;;9.75;7.05;;;;;;;16.89;50.40;101471.31;4990361;28;20050;-65
2021/10/19 04:44:34;;;;;;;10.85;7.03;;;;;;;16.88;50.67;101466.88;4987648;28;20527;-65
2021/10/19 04:47:01;;;;;;;10.60;7.20;;;;;;;16.88;50.68;101469.59;4982006;28;20049;-65
2021/10/19 04:49:28;;;;;;;11.13;7.72;;;;;;;16.87;50.62;101470.59;4974824;28;20055;-65
2021/10/19 04:51:54;;;;;;;13.60;7.47;;;;;;;16.86;51.03;101468.84;4991929;28;20074;-65
2021/10/19 04:54:21;;;;;;;9.25;7.10;;;;;;;16.86;51.00;101465.25;4988397;28;20054;-65
2021/10/19 04:56:48;;;;;;;10.88;6.97;;;;;;;16.86;50.86;101470.72;4992262;28;20046;-65
2021/10/19 04:59:14;;;;;;;11.10;7.60;;;;;;;16.85;51.34;101460.75;4990805;28;20338;-65
2021/10/19 05:01:41;;;;;;;10.90;7.90;;;;;;;16.86;50.96;101463.38;4990364;28;20073;-65
2021/10/19 05:04:15;;;;;;;9.90;7.07;;;;;;;16.85;51.26;101461.63;4990075;28;20057;-65
2021/10/19 05:06:42;;;;;;;11.27;7.35;;;;;;;16.87;51.21;101453.28;4990040;28;20042;-65
2021/10/19 05:09:09;;;;;;;11.10;7.90;;;;;;;16.86;51.36;101457.88;4990220;28;20046;-67
2021/10/19 05:11:36;;;;;;;10.63;7.25;;;;;;;16.87;51.45;101451.41;4974414;28;20089;-64
2021/10/19 05:14:03;;;;;;;10.30;6.70;;;;;;;16.86;51.78;101451.53;4990202;28;20129;-64
2021/10/19 05:16:29;;;;;;;10.23;6.55;;;;;;;16.88;51.78;101452.28;4989410;28;20465;-64
2021/10/19 05:18:56;;;;;;;10.50;7.22;;;;;;;16.88;51.62;101444.06;4991029;28;20054;-65
2021/10/19 05:21:23;;;;;;;11.88;8.63;;;;;;;16.86;51.78;101446.03;4991731;28;20054;-64
2021/10/19 05:23:50;;;;;;;10.52;7.30;;;;;;;16.90;51.71;101456.63;4989932;28;20057;-64
2021/10/19 05:26:16;;;;;;;10.20;6.78;;;;;;;16.91;51.62;101450.13;4973351;28;20141;-65
2021/10/19 05:28:43;;;;;;;10.48;7.32;;;;;;;16.90;51.77;101447.50;4989802;28;20093;-66
2021/10/19 05:31:10;;;;;;;10.70;7.38;;;;;;;16.92;51.67;101443.66;4990781;28;20477;-65
2021/10/19 05:33:36;;;;;;;10.35;7.50;;;;;;;16.93;52.09;101444.53;4990167;28;20486;-65
2021/10/19 05:36:03;;;;;;;10.70;6.90;;;;;;;16.95;52.13;101442.53;4986917;28;20070;-65
2021/10/19 05:38:33;;;;;;;9.85;6.68;;;;;;;16.96;52.01;101453.38;4964962;28;20203;-65
2021/10/19 05:41:01;;;;;;;11.23;6.47;;;;;;;16.99;52.10;101454.97;4992905;28;20053;-65
2021/10/19 05:43:28;;;;;;;11.18;7.03;;;;;;;16.99;52.17;101461.31;4990054;28;20141;-65
2021/10/19 05:45:55;;;;;;;9.98;6.20;;;;;;;17.00;52.18;101456.72;4990053;28;20078;-65
2021/10/19 05:48:21;;;;;;;10.52;6.97;;;;;;;17.03;52.05;101459.22;4988601;28;20057;-65
2021/10/19 05:50:48;;;;;;;9.00;6.47;;;;;;;17.03;52.02;101446.38;4990599;28;20128;-65
2021/10/19 05:53:14;;;;;;;10.55;6.78;;;;;;;17.06;52.06;101456.19;4990737;28;20177;-65
2021/10/19 05:55:41;;;;;;;9.48;6.13;;;;;;;17.07;52.44;101455.19;4982123;28;20665;-65
2021/10/19 05:58:08;;;;;;;10.45;7.15;;;;;;;17.09;52.07;101451.31;4989652;28;20045;-65
2021/10/19 06:00:48;;;;;;;9.77;6.65;;;;;;;17.09;52.18;101444.97;4987844;28;20045;-65
2021/10/19 06:03:15;;;;;;;11.05;7.32;;;;;;;17.11;52.13;101443.84;4990604;28;20050;-65
2021/10/19 06:05:42;;;;;;;9.32;6.75;;;;;;;17.13;52.48;101445.59;4987072;28;20129;-65
2021/10/19 06:08:09;;;;;;;11.02;6.78;;;;;;;17.14;52.54;101439.94;4985948;28;20528;-65
2021/10/19 06:10:36;;;;;;;9.27;6.70;;;;;;;17.16;52.13;101446.19;4984450;28;20830;-65
2021/10/19 06:13:03;;;;;;;9.77;6.72;;;;;;;17.17;52.77;101441.56;4990042;28;20054;-65
2021/10/19 06:15:29;;;;;;;9.68;6.78;;;;;;;17.17;52.63;101447.94;4988812;28;20457;-65
2021/10/19 06:17:56;;;;;;;9.73;6.07;;;;;;;17.18;52.19;101449.69;4964995;28;20406;-65
2021/10/19 06:20:23;;;;;;;10.15;7.47;;;;;;;17.19;52.57;101456.03;4988392;28;20549;-65
2021/10/19 06:22:49;;;;;;;9.07;6.03;;;;;;;17.21;52.42;101454.91;4988512;28;20070;-65
2021/10/19 06:25:16;;;;;;;10.45;7.40;;;;;;;17.21;52.46;101452.16;4988190;28;20274;-65
2021/10/19 06:27:43;;;;;;;9.30;6.05;;;;;;;17.22;52.29;101440.16;4985837;28;20097;-65
2021/10/19 06:30:10;;;;;;;9.85;6.78;;;;;;;17.23;52.59;101447.41;4986749;28;20050;-65
2021/10/19 06:32:39;;;;;;;9.40;6.55;;;;;;;17.25;52.62;101450.03;4989375;28;20057;-65
2021/10/19 06:35:10;;;;;;;9.38;6.60;;;;;;;17.26;52.70;101447.16;4986208;28;20141;-65
2021/10/19 06:37:38;;;;;;;8.85;6.32;;;;;;;17.27;52.80;101445.28;4988041;28;20054;-65
2021/10/19 06:40:06;;;;;;;9.55;6.55;;;;;;;17.29;52.27;101448.78;4980073;28;20128;-65
2021/10/19 06:42:33;;;;;;;9.40;6.63;;;;;;;17.27;52.24;101451.63;4987863;28;20117;-65
2021/10/19 06:45:00;;;;;;;9.23;6.57;;;;;;;17.28;52.61;101445.16;4987933;28;20050;-65
2021/10/19 06:47:31;;;;;;;9.00;6.10;;;;;;;17.29;52.56;101419.44;4988426;28;20042;-65
2021/10/19 06:49:58;;;;;;;10.05;6.53;;;;;;;17.30;52.67;101434.00;4988070;28;20088;-65
2021/10/19 06:52:25;;;;;;;9.82;6.43;;;;;;;17.31;52.44;101427.53;4982593;28;20038;-65
2021/10/19 06:54:53;;;;;;;10.02;6.15;;;;;;;17.31;52.68;101433.03;4986726;28;20054;-65
2021/10/19 06:57:19;;;;;;;10.30;6.15;;;;;;;17.31;52.81;101433.88;4989949;28;20085;-65
2021/10/19 06:59:46;;;;;;;8.85;6.50;;;;;;;17.31;52.48;101436.63;4985965;28;20682;-65
2021/10/19 07:02:13;;;;;;;9.60;6.35;;;;;;;17.32;52.74;101429.28;4987966;28;20564;-65
2021/10/19 07:04:39;;;;;;;10.18;6.47;;;;;;;17.32;53.01;101443.00;4987451;28;20046;-65
2021/10/19 07:07:06;;;;;;;7.90;5.93;;;;;;;17.34;52.88;101438.25;4986684;28;20125;-65
2021/10/19 07:09:33;;;;;;;10.15;6.07;;;;;;;17.33;52.71;101442.88;4987462;28;20140;-65
2021/10/19 07:12:01;;;;;;;9.60;6.50;;;;;;;17.35;53.12;101440.00;4988657;28;20378;-65
2021/10/19 07:14:28;;;;;;;9.45;5.68;;;;;;;17.34;52.78;101432.75;4968020;28;20058;-65
2021/10/19 07:16:54;;;;;;;10.27;6.25;;;;;;;17.35;52.92;101440.88;4987468;28;20128;-65
2021/10/19 07:19:21;;;;;;;8.40;5.93;;;;;;;17.37;53.17;101443.50;4986619;28;20093;-65
2021/10/19 07:21:49;;;;;;;8.70;5.95;;;;;;;17.37;52.92;101438.00;4980839;28;20046;-65
2021/10/19 07:24:15;;;;;;;9.32;5.88;;;;;;;17.38;52.82;101436.97;4983824;28;20085;-65
2021/10/19 07:26:42;;;;;;;8.68;5.68;;;;;;;17.40;52.58;101440.47;4980108;28;20714;-65
2021/10/19 07:29:10;;;;;;;8.02;5.82;;;;;;;17.40;53.17;101444.09;4998719;28;20077;-65
2021/10/19 07:31:37;;;;;;;10.10;6.20;;;;;;;17.39;53.29;101445.09;4987739;28;20556;-65
2021/10/19 07:34:03;;;;;;;9.50;6.00;;;;;;;17.42;53.06;101446.69;4986563;28;20129;-65
2021/10/19 07:36:31;;;;;;;7.63;5.47;;;;;;;17.41;53.25;101444.97;4974689;28;20042;-65
2021/10/19 07:38:58;;;;;;;10.57;5.97;;;;;;;17.42;53.00;101439.34;4987829;28;20058;-65
2021/10/19 07:41:25;;;;;;;8.18;5.20;;;;;;;17.44;52.98;101450.19;4984212;28;20046;-65
2021/10/19 07:43:51;;;;;;;8.07;5.15;;;;;;;17.43;53.22;101452.06;4982514;28;20822;-65
2021/10/19 07:46:18;;;;;;;7.75;5.10;;;;;;;17.44;53.31;101451.06;4986372;28;20082;-65
2021/10/19 07:48:45;;;;;;;7.38;5.22;;;;;;;17.45;52.90;101455.56;4986689;28;20046;-65
2021/10/19 07:51:11;;;;;;;7.05;4.65;;;;;;;17.48;52.99;101460.75;4985250;28;20049;-65
2021/10/19 07:53:38;;;;;;;7.32;5.43;;;;;;;17.48;52.86;101458.03;4988852;28;20616;-65
2021/10/19 07:56:05;;;;;;;7.13;5.03;;;;;;;17.49;53.29;101465.25;4970182;28;20442;-65
2021/10/19 07:58:31;;;;;;;7.18;4.70;;;;;;;17.49;53.17;101464.38;4986883;28;20096;-65
2021/10/19 08:00:58;;;;;;;7.07;4.72;;;;;;;17.51;53.37;101465.13;4984405;28;20109;-65
2021/10/19 08:03:25;;;;;;;8.40;5.20;;;;;;;17.52;53.28;101464.13;4982090;28;20146;-65
2021/10/19 08:05:52;;;;;;;7.32;4.97;;;;;;;17.53;53.67;101459.50;4987103;28;20050;-65
2021/10/19 08:08:18;;;;;;;7.15;5.13;;;;;;;17.54;53.11;101459.38;4986695;28;20121;-65
2021/10/19 08:10:46;;;;;;;7.15;4.60;;;;;;;17.56;53.53;101461.97;4986499;28;20552;-65
2021/10/19 08:13:15;;;;;;;8.40;4.72;;;;;;;17.57;53.50;101461.84;4992562;28;20548;-65
2021/10/19 08:15:41;;;;;;;7.03;4.78;;;;;;;17.57;53.59;101463.72;4991189;28;20386;-65
2021/10/19 08:18:09;;;;;;;6.60;4.38;;;;;;;17.57;53.11;101461.84;4992314;28;20043;-65
2021/10/19 08:20:37;;;;;;;5.85;4.25;;;;;;;17.60;53.24;101461.59;4991301;28;20046;-65
2021/10/19 08:23:05;;;;;;;6.38;4.45;;;;;;;17.60;53.48;101466.22;4973347;28;20046;-65
2021/10/19 08:25:31;;;;;;;6.47;4.43;;;;;;;17.61;53.42;101465.22;4990144;28;20610;-65
2021/10/19 08:27:58;;;;;;;6.68;4.22;;;;;;;17.60;53.28;101464.34;4987284;28;20137;-65
2021/10/19 08:30:25;;;;;;;6.28;3.83;;;;;;;17.62;53.41;101467.88;4986084;28;20045;-64
2021/10/19 08:32:52;;;;;;;6.65;4.43;;;;;;;17.63;53.48;101469.56;4993422;28;20116;-65
2021/10/19 08:35:23;;;;;;;5.90;4.25;;;;;;;17.65;53.57;101467.56;4992144;28;20043;-65
2021/10/19 08:37:52;;;;;;;6.32;4.30;;;;;;;17.66;53.71;101460.22;4992950;28;20085;-65
2021/10/19 08:40:20;;;;;;;6.88;4.40;;;;;;;17.66;53.87;101461.09;4975649;28;20058;-65
2021/10/19 08:42:52;;;;;;;6.43;3.85;;;;;;;17.66;53.66;101461.09;4993670;28;20054;-65
2021/10/19 08:45:20;;;;;;;6.85;3.95;;;;;;;17.66;53.73;101454.72;4992505;28;20047;-65
2021/10/19 08:47:49;;;;;;;6.57;4.03;;;;;;;17.69;53.65;101458.09;4991110;28;20054;-65
2021/10/19 08:50:18;;;;;;;6.72;3.60;;;;;;;17.71;53.64;101464.28;4992085;28;20054;-65
2021/10/19 08:52:46;;;;;;;5.93;3.88;;;;;;;17.71;53.88;101458.78;4997548;28;20477;-65
2021/10/19 08:55:14;;;;;;;6.03;3.83;;;;;;;17.73;53.81;101444.94;4992354;28;20049;-65
2021/10/19 08:57:40;;;;;;;4.35;3.25;;;;;;;17.73;53.80;101450.44;4992358;28;20134;-65
2021/10/19 09:00:09;;;;;;;5.15;3.78;;;;;;;17.76;53.63;101458.41;4992056;28;20078;-65
2021/10/19 09:02:38;;;;;;;7.32;3.50;;;;;;;17.77;54.63;101455.53;4992981;28;20093;-65
2021/10/19 09:05:13;;;;;;;6.28;3.88;;;;;;;17.77;53.92;101447.28;4980305;28;20047;-65
2021/10/19 09:07:40;;;;;;;6.15;3.60;;;;;;;17.77;54.39;101443.69;4987752;28;20489;-65
2021/10/19 09:10:15;;;;;;;6.13;3.58;;;;;;;17.81;54.62;101443.25;4980506;28;20050;-65
2021/10/19 09:13:08;;;;;;;6.28;3.72;;;;;;;17.79;54.92;101445.25;4993065;28;20137;-65
2021/10/19 09:15:39;;;;;;;5.05;3.33;;;;;;;17.80;54.42;101441.50;4983863;28;20050;-65
2021/10/19 09:18:11;;;;;;;5.35;3.55;;;;;;;17.82;54.55;101444.13;4992631;28;20042;-65
2021/10/19 09:20:46;;;;;;;4.80;3.20;;;;;;;17.83;54.41;101438.50;4991969;28;20054;-65
2021/10/19 09:23:14;;;;;;;5.15;3.28;;;;;;;17.85;54.51;101449.38;4992208;28;20137;-65
2021/10/19 09:25:43;;;;;;;5.75;3.30;;;;;;;17.88;54.44;101451.81;4984159;28;20046;-65
2021/10/19 09:28:13;;;;;;;5.50;3.13;;;;;;;17.90;54.42;101448.94;4992547;28;20088;-65
2021/10/19 09:30:41;;;;;;;4.90;3.22;;;;;;;17.90;54.31;101455.31;4991523;28;20576;-65
2021/10/19 09:33:19;;;;;;;4.65;2.95;;;;;;;17.94;54.82;101453.19;4992154;28;20053;-65
2021/10/19 09:35:51;;;;;;;4.65;2.95;;;;;;;17.97;55.06;101444.66;4991577;28;20141;-65
2021/10/19 09:38:17;;;;;;;4.65;3.13;;;;;;;17.93;54.54;101452.31;4992161;28;20501;-65
2021/10/19 09:40:46;;;;;;;4.60;2.97;;;;;;;18.00;54.68;101449.88;4992174;28;20052;-65
2021/10/19 09:43:15;;;;;;;5.13;3.05;;;;;;;18.02;54.47;101439.63;4992527;28;20058;-65
2021/10/19 09:45:45;;;;;;;4.25;2.65;;;;;;;18.04;54.75;101446.72;4984730;28;20046;-65
2021/10/19 09:48:17;;;;;;;5.13;3.28;;;;;;;18.06;55.05;101447.47;4991583;28;20052;-65
2021/10/19 09:50:46;;;;;;;4.90;3.03;;;;;;;18.07;55.22;101451.94;4966423;28;20051;-65
2021/10/19 09:53:15;;;;;;;4.38;2.92;;;;;;;18.10;55.12;101445.31;4998269;28;20085;-65
2021/10/19 09:55:42;;;;;;;4.75;3.10;;;;;;;18.10;55.20;101448.94;4988771;28;20498;-65
2021/10/19 09:58:09;;;;;;;5.45;2.90;;;;;;;18.13;54.79;101447.78;4989886;28;20604;-65
2021/10/19 10:00:37;;;;;;;4.50;3.10;;;;;;;18.15;54.77;101446.63;4972971;28;20046;-65
2021/10/19 10:03:04;;;;;;;5.65;3.40;;;;;;;18.17;55.01;101454.75;4989677;28;20050;-65
2021/10/19 10:05:33;;;;;;;4.68;3.38;;;;;;;18.22;55.18;101457.94;4964212;28;20046;-65
2021/10/19 10:08:01;;;;;;;4.72;2.90;;;;;;;18.23;55.26;101457.81;4987898;28;20042;-65
2021/10/19 10:10:28;;;;;;;5.60;2.95;;;;;;;18.24;55.24;101458.69;4974676;28;20062;-65
2021/10/19 10:13:07;;;;;;;4.15;2.95;;;;;;;18.29;56.21;101450.88;4990100;28;20054;-65
2021/10/19 10:15:35;;;;;;;4.20;2.88;;;;;;;18.27;55.44;101455.69;4991001;28;20046;-65
2021/10/19 10:18:08;;;;;;;5.03;3.03;;;;;;;18.32;55.40;101452.50;4990160;28;20044;-66
2021/10/19 10:20:36;;;;;;;5.53;3.10;;;;;;;18.33;55.57;101454.25;4986816;28;20472;-65
2021/10/19 10:23:21;;;;;;;3.55;2.50;;;;;;;18.36;56.42;101453.97;4991611;28;20050;-65
2021/10/19 10:25:51;;;;;;;5.53;3.15;;;;;;;18.36;55.48;101448.47;4986161;28;20046;-65
2021/10/19 10:28:24;;;;;;;4.82;3.17;;;;;;;18.37;55.64;101447.44;4989959;28;20058;-65
2021/10/19 10:30:52;;;;;;;4.30;2.85;;;;;;;18.39;55.10;101449.06;4987768;28;20043;-65
2021/10/19 10:33:31;;;;;;;4.18;2.85;;;;;;;18.43;56.13;101452.41;4989809;28;20347;-66
2021/10/19 10:36:45;;;;;;;4.15;2.65;;;;;;;18.42;56.09;101454.28;4989783;28;20136;-65
2021/10/19 10:39:13;;;;;;;4.45;2.58;;;;;;;18.43;55.14;101452.41;4908986;29;20076;-65
2021/10/19 10:41:44;;;;;;;4.20;2.58;;;;;;;18.47;55.58;101453.88;4909001;29;20107;-65
2021/10/19 10:44:17;;;;;;;3.53;2.22;;;;;;;18.49;55.52;101460.97;4909397;29;20052;-65
2021/10/19 10:46:44;;;;;;;;;;;;;;;18.24;56.32;101461.44;4912705;29;20107;-65
2021/10/19 10:49:13;;;;;;;4.35;2.42;;;;;;;18.47;55.48;101456.63;4911007;29;19923;-65
2021/10/19 10:51:42;;;;;;;4.65;2.47;;;;;;;18.55;55.63;101457.66;4911860;29;20079;-66
2021/10/19 10:54:42;;;;;;;5.18;2.38;;;;;;;18.56;56.30;101459.44;4897021;29;20048;-65
2021/10/19 10:57:50;;;;;;;3.42;2.00;;;;;;;18.53;55.79;101451.41;4909378;29;20043;-66
2021/10/19 11:00:25;;;;;;;4.20;2.45;;;;;;;18.60;56.01;101449.91;4911669;29;20083;-65
2021/10/19 11:03:15;;;;;;;4.80;2.50;;;;;;;18.60;56.65;101447.16;4904307;29;20048;-65
2021/10/19 11:05:56;;;;;;;3.60;2.35;;;;;;;18.63;56.23;101449.63;4910130;29;20048;-66
2021/10/19 11:08:33;;;;;;;4.22;2.30;;;;;;;18.65;55.78;101434.84;4909794;29;20048;-66
2021/10/19 11:11:19;;;;;;;4.18;2.20;;;;;;;18.67;56.88;101439.22;4896068;29;20510;-65
2021/10/19 11:13:55;;;;;;;3.47;2.28;;;;;;;18.71;56.42;101426.91;4909673;29;20048;-65
2021/10/19 11:16:33;;;;;;;3.95;2.40;;;;;;;18.76;56.59;101432.00;4963727;28;20046;-65
2021/10/19 11:19:03;;;;;;;4.28;2.60;;;;;;;18.75;56.13;101416.50;4983997;28;20381;-65
2021/10/19 11:21:31;;;;;;;4.43;2.97;;;;;;;18.78;56.06;101419.81;4986327;28;20054;-66
2021/10/19 11:23:59;;;;;;;4.88;2.83;;;;;;;18.80;56.30;101422.44;4989938;28;20050;-65
2021/10/19 11:26:25;;;;;;;4.10;2.60;;;;;;;18.84;55.78;101432.16;4994419;28;20085;-65
2021/10/19 11:28:57;;;;;;;4.53;2.30;;;;;;;18.86;56.11;101431.00;4986452;28;20050;-65